sensor_id;sensor_type;location;lat;lon;timestamp;P1;durP1;ratioP1;P2;durP2;ratioP2
15356;SDS011;7778;48.792;9.260;2023-06-24T00:01:53;4.35;;;2.90;;
15356;SDS011;7778;48.792;9.260;2023-06-24T00:04:38;5.50;;;3.42;;
15356;SDS011;7778;48.792;9.260;2023-06-24T00:07:26;4.82;;;2.90;;
15356;SDS011;7778;48.792;9.260;2023-06-24T00:10:12;5.55;;;3.10;;
15356;SDS011;7778;48.792;9.260;2023-06-24T00:12:59;4.70;;;2.67;;
15356;SDS011;7778;48.792;9.260;2023-06-24T00:15:46;6.53;;;3.22;;
15356;SDS011;7778;48.792;9.260;2023-06-24T00:18:31;4.78;;;2.83;;
15356;SDS011;7778;48.792;9.260;2023-06-24T00:21:17;6.50;;;3.22;;
15356;SDS011;7778;48.792;9.260;2023-06-24T00:24:04;4.93;;;3.00;;
15356;SDS011;7778;48.792;9.260;2023-06-24T00:26:50;5.75;;;3.30;;
15356;SDS011;7778;48.792;9.260;2023-06-24T00:29:36;5.68;;;3.08;;
15356;SDS011;7778;48.792;9.260;2023-06-24T00:32:22;4.95;;;3.22;;
15356;SDS011;7778;48.792;9.260;2023-06-24T00:35:08;5.53;;;3.55;;
15356;SDS011;7778;48.792;9.260;2023-06-24T00:37:54;4.13;;;2.88;;
15356;SDS011;7778;48.792;9.260;2023-06-24T00:40:43;5.47;;;3.35;;
15356;SDS011;7778;48.792;9.260;2023-06-24T00:43:30;5.97;;;3.20;;
15356;SDS011;7778;48.792;9.260;2023-06-24T00:46:15;4.38;;;3.17;;
15356;SDS011;7778;48.792;9.260;2023-06-24T00:49:03;4.60;;;3.20;;
15356;SDS011;7778;48.792;9.260;2023-06-24T00:51:48;4.07;;;2.88;;
15356;SDS011;7778;48.792;9.260;2023-06-24T00:54:35;6.47;;;3.42;;
15356;SDS011;7778;48.792;9.260;2023-06-24T00:57:22;5.03;;;3.40;;
15356;SDS011;7778;48.792;9.260;2023-06-24T01:00:08;4.47;;;3.05;;
15356;SDS011;7778;48.792;9.260;2023-06-24T01:02:58;6.38;;;3.40;;
15356;SDS011;7778;48.792;9.260;2023-06-24T01:05:44;6.43;;;3.55;;
15356;SDS011;7778;48.792;9.260;2023-06-24T01:08:30;4.95;;;3.33;;
15356;SDS011;7778;48.792;9.260;2023-06-24T01:11:16;5.32;;;3.33;;
15356;SDS011;7778;48.792;9.260;2023-06-24T01:14:03;4.75;;;2.90;;
15356;SDS011;7778;48.792;9.260;2023-06-24T01:16:51;5.90;;;3.17;;
15356;SDS011;7778;48.792;9.260;2023-06-24T01:19:51;5.13;;;3.30;;
15356;SDS011;7778;48.792;9.260;2023-06-24T01:26:46;5.63;;;2.90;;
15356;SDS011;7778;48.792;9.260;2023-06-24T01:29:58;6.10;;;3.45;;
15356;SDS011;7778;48.792;9.260;2023-06-24T01:33:09;4.85;;;3.70;;
15356;SDS011;7778;48.792;9.260;2023-06-24T01:36:00;7.07;;;3.67;;
15356;SDS011;7778;48.792;9.260;2023-06-24T01:38:47;5.85;;;3.40;;
15356;SDS011;7778;48.792;9.260;2023-06-24T01:41:41;5.88;;;3.42;;
15356;SDS011;7778;48.792;9.260;2023-06-24T01:44:30;5.15;;;3.38;;
15356;SDS011;7778;48.792;9.260;2023-06-24T01:47:16;5.43;;;3.10;;
15356;SDS011;7778;48.792;9.260;2023-06-24T01:50:08;4.43;;;2.90;;
15356;SDS011;7778;48.792;9.260;2023-06-24T01:52:56;6.07;;;3.28;;
15356;SDS011;7778;48.792;9.260;2023-06-24T01:55:43;6.05;;;3.40;;
15356;SDS011;7778;48.792;9.260;2023-06-24T01:58:31;6.07;;;3.20;;
15356;SDS011;7778;48.792;9.260;2023-06-24T02:01:18;5.50;;;3.45;;
15356;SDS011;7778;48.792;9.260;2023-06-24T02:04:06;5.70;;;3.60;;
15356;SDS011;7778;48.792;9.260;2023-06-24T02:06:56;5.93;;;3.72;;
15356;SDS011;7778;48.792;9.260;2023-06-24T02:09:45;6.35;;;3.30;;
15356;SDS011;7778;48.792;9.260;2023-06-24T02:12:32;6.20;;;3.97;;
15356;SDS011;7778;48.792;9.260;2023-06-24T02:15:18;6.30;;;3.85;;
15356;SDS011;7778;48.792;9.260;2023-06-24T02:18:05;5.57;;;3.65;;
15356;SDS011;7778;48.792;9.260;2023-06-24T02:20:53;5.28;;;3.63;;
15356;SDS011;7778;48.792;9.260;2023-06-24T02:23:42;7.43;;;3.90;;
15356;SDS011;7778;48.792;9.260;2023-06-24T02:26:28;8.43;;;3.53;;
15356;SDS011;7778;48.792;9.260;2023-06-24T02:29:14;5.38;;;3.80;;
15356;SDS011;7778;48.792;9.260;2023-06-24T02:32:00;6.20;;;3.67;;
15356;SDS011;7778;48.792;9.260;2023-06-24T02:34:45;6.00;;;3.28;;
15356;SDS011;7778;48.792;9.260;2023-06-24T02:37:31;8.40;;;4.18;;
15356;SDS011;7778;48.792;9.260;2023-06-24T02:40:18;5.55;;;3.60;;
15356;SDS011;7778;48.792;9.260;2023-06-24T02:43:04;7.85;;;4.43;;
15356;SDS011;7778;48.792;9.260;2023-06-24T02:45:50;6.40;;;4.20;;
15356;SDS011;7778;48.792;9.260;2023-06-24T02:48:37;6.00;;;3.63;;
15356;SDS011;7778;48.792;9.260;2023-06-24T02:51:24;7.72;;;3.88;;
15356;SDS011;7778;48.792;9.260;2023-06-24T02:54:10;5.88;;;4.13;;
15356;SDS011;7778;48.792;9.260;2023-06-24T02:56:57;6.38;;;4.20;;
15356;SDS011;7778;48.792;9.260;2023-06-24T02:59:44;6.68;;;4.47;;
15356;SDS011;7778;48.792;9.260;2023-06-24T03:02:30;5.78;;;3.38;;
15356;SDS011;7778;48.792;9.260;2023-06-24T03:05:16;5.78;;;3.47;;
15356;SDS011;7778;48.792;9.260;2023-06-24T03:08:03;6.43;;;4.30;;
15356;SDS011;7778;48.792;9.260;2023-06-24T03:10:49;6.05;;;3.95;;
15356;SDS011;7778;48.792;9.260;2023-06-24T03:13:36;6.03;;;3.75;;
15356;SDS011;7778;48.792;9.260;2023-06-24T03:16:21;6.93;;;4.05;;
15356;SDS011;7778;48.792;9.260;2023-06-24T03:19:07;7.00;;;4.10;;
15356;SDS011;7778;48.792;9.260;2023-06-24T03:21:53;9.27;;;4.28;;
15356;SDS011;7778;48.792;9.260;2023-06-24T03:24:38;7.78;;;4.25;;
15356;SDS011;7778;48.792;9.260;2023-06-24T03:27:24;6.60;;;3.80;;
15356;SDS011;7778;48.792;9.260;2023-06-24T03:30:12;9.63;;;4.40;;
15356;SDS011;7778;48.792;9.260;2023-06-24T03:32:58;6.25;;;4.28;;
15356;SDS011;7778;48.792;9.260;2023-06-24T03:35:44;6.35;;;3.85;;
15356;SDS011;7778;48.792;9.260;2023-06-24T03:38:29;4.70;;;3.47;;
15356;SDS011;7778;48.792;9.260;2023-06-24T03:41:15;6.25;;;4.07;;
15356;SDS011;7778;48.792;9.260;2023-06-24T03:44:01;6.30;;;3.97;;
15356;SDS011;7778;48.792;9.260;2023-06-24T03:46:48;5.65;;;4.13;;
15356;SDS011;7778;48.792;9.260;2023-06-24T03:49:34;7.85;;;4.28;;
15356;SDS011;7778;48.792;9.260;2023-06-24T03:52:19;7.30;;;4.38;;
15356;SDS011;7778;48.792;9.260;2023-06-24T03:55:05;8.73;;;4.63;;
15356;SDS011;7778;48.792;9.260;2023-06-24T03:57:51;6.40;;;3.85;;
15356;SDS011;7778;48.792;9.260;2023-06-24T04:00:37;6.72;;;3.97;;
15356;SDS011;7778;48.792;9.260;2023-06-24T04:03:25;9.32;;;4.80;;
15356;SDS011;7778;48.792;9.260;2023-06-24T04:06:11;6.18;;;4.13;;
15356;SDS011;7778;48.792;9.260;2023-06-24T04:08:57;6.03;;;3.83;;
15356;SDS011;7778;48.792;9.260;2023-06-24T04:11:42;9.25;;;4.28;;
15356;SDS011;7778;48.792;9.260;2023-06-24T04:14:28;6.22;;;4.00;;
15356;SDS011;7778;48.792;9.260;2023-06-24T04:17:14;6.40;;;4.00;;
15356;SDS011;7778;48.792;9.260;2023-06-24T04:20:01;8.02;;;4.18;;
15356;SDS011;7778;48.792;9.260;2023-06-24T04:22:51;4.75;;;3.50;;
15356;SDS011;7778;48.792;9.260;2023-06-24T04:25:37;6.35;;;4.43;;
15356;SDS011;7778;48.792;9.260;2023-06-24T04:28:22;6.63;;;3.42;;
15356;SDS011;7778;48.792;9.260;2023-06-24T04:31:08;5.68;;;3.97;;
15356;SDS011;7778;48.792;9.260;2023-06-24T04:33:53;8.30;;;4.88;;
15356;SDS011;7778;48.792;9.260;2023-06-24T04:36:41;8.70;;;4.18;;
15356;SDS011;7778;48.792;9.260;2023-06-24T04:39:26;6.38;;;4.10;;
15356;SDS011;7778;48.792;9.260;2023-06-24T04:42:12;5.40;;;3.47;;
15356;SDS011;7778;48.792;9.260;2023-06-24T04:44:58;7.70;;;4.30;;
15356;SDS011;7778;48.792;9.260;2023-06-24T04:47:44;6.68;;;3.47;;
15356;SDS011;7778;48.792;9.260;2023-06-24T04:50:30;7.95;;;4.72;;
15356;SDS011;7778;48.792;9.260;2023-06-24T04:53:16;11.20;;;4.70;;
15356;SDS011;7778;48.792;9.260;2023-06-24T04:56:02;8.30;;;3.97;;
15356;SDS011;7778;48.792;9.260;2023-06-24T04:58:48;7.57;;;4.30;;
15356;SDS011;7778;48.792;9.260;2023-06-24T05:01:34;6.13;;;4.25;;
15356;SDS011;7778;48.792;9.260;2023-06-24T05:04:19;6.93;;;3.97;;
15356;SDS011;7778;48.792;9.260;2023-06-24T05:07:05;5.88;;;3.80;;
15356;SDS011;7778;48.792;9.260;2023-06-24T05:09:52;5.22;;;3.35;;
15356;SDS011;7778;48.792;9.260;2023-06-24T05:12:38;7.05;;;4.35;;
15356;SDS011;7778;48.792;9.260;2023-06-24T05:15:23;6.13;;;3.85;;
15356;SDS011;7778;48.792;9.260;2023-06-24T05:18:09;7.45;;;4.25;;
15356;SDS011;7778;48.792;9.260;2023-06-24T05:20:54;6.57;;;3.58;;
15356;SDS011;7778;48.792;9.260;2023-06-24T05:23:40;5.60;;;3.60;;
15356;SDS011;7778;48.792;9.260;2023-06-24T05:26:27;5.03;;;3.35;;
15356;SDS011;7778;48.792;9.260;2023-06-24T05:29:13;4.78;;;3.20;;
15356;SDS011;7778;48.792;9.260;2023-06-24T05:31:58;4.15;;;3.22;;
15356;SDS011;7778;48.792;9.260;2023-06-24T05:34:46;6.13;;;3.72;;
15356;SDS011;7778;48.792;9.260;2023-06-24T05:37:32;4.97;;;3.10;;
15356;SDS011;7778;48.792;9.260;2023-06-24T05:40:18;6.43;;;3.80;;
15356;SDS011;7778;48.792;9.260;2023-06-24T05:43:04;4.97;;;3.83;;
15356;SDS011;7778;48.792;9.260;2023-06-24T05:45:50;9.13;;;3.90;;
15356;SDS011;7778;48.792;9.260;2023-06-24T05:48:36;6.97;;;3.85;;
15356;SDS011;7778;48.792;9.260;2023-06-24T05:51:21;5.95;;;3.58;;
15356;SDS011;7778;48.792;9.260;2023-06-24T05:54:07;5.03;;;3.50;;
15356;SDS011;7778;48.792;9.260;2023-06-24T05:56:53;4.43;;;3.13;;
15356;SDS011;7778;48.792;9.260;2023-06-24T05:59:40;5.43;;;3.85;;
15356;SDS011;7778;48.792;9.260;2023-06-24T06:02:25;4.75;;;3.60;;
15356;SDS011;7778;48.792;9.260;2023-06-24T06:05:11;4.93;;;3.55;;
15356;SDS011;7778;48.792;9.260;2023-06-24T06:07:56;6.57;;;3.53;;
15356;SDS011;7778;48.792;9.260;2023-06-24T06:10:42;4.57;;;3.17;;
15356;SDS011;7778;48.792;9.260;2023-06-24T06:13:27;5.03;;;3.25;;
15356;SDS011;7778;48.792;9.260;2023-06-24T06:16:14;4.78;;;3.28;;
15356;SDS011;7778;48.792;9.260;2023-06-24T06:19:00;5.60;;;3.50;;
15356;SDS011;7778;48.792;9.260;2023-06-24T06:21:46;5.35;;;3.50;;
15356;SDS011;7778;48.792;9.260;2023-06-24T06:24:34;5.63;;;3.05;;
15356;SDS011;7778;48.792;9.260;2023-06-24T06:27:20;4.40;;;3.22;;
15356;SDS011;7778;48.792;9.260;2023-06-24T06:30:06;4.05;;;3.22;;
15356;SDS011;7778;48.792;9.260;2023-06-24T06:32:54;4.35;;;3.35;;
15356;SDS011;7778;48.792;9.260;2023-06-24T06:35:39;3.92;;;3.00;;
15356;SDS011;7778;48.792;9.260;2023-06-24T06:38:25;4.35;;;3.13;;
15356;SDS011;7778;48.792;9.260;2023-06-24T06:41:11;5.15;;;3.13;;
15356;SDS011;7778;48.792;9.260;2023-06-24T06:43:57;5.13;;;3.10;;
15356;SDS011;7778;48.792;9.260;2023-06-24T06:46:42;4.95;;;3.58;;
15356;SDS011;7778;48.792;9.260;2023-06-24T06:49:29;5.60;;;3.20;;
15356;SDS011;7778;48.792;9.260;2023-06-24T06:52:15;4.60;;;3.20;;
15356;SDS011;7778;48.792;9.260;2023-06-24T06:55:01;5.50;;;3.40;;
15356;SDS011;7778;48.792;9.260;2023-06-24T06:57:47;4.45;;;3.20;;
15356;SDS011;7778;48.792;9.260;2023-06-24T07:00:33;5.00;;;3.33;;
15356;SDS011;7778;48.792;9.260;2023-06-24T07:03:18;3.72;;;2.80;;
15356;SDS011;7778;48.792;9.260;2023-06-24T07:06:05;3.05;;;2.75;;
15356;SDS011;7778;48.792;9.260;2023-06-24T07:08:51;5.90;;;3.38;;
15356;SDS011;7778;48.792;9.260;2023-06-24T07:11:37;3.83;;;2.75;;
15356;SDS011;7778;48.792;9.260;2023-06-24T07:14:22;4.25;;;3.08;;
15356;SDS011;7778;48.792;9.260;2023-06-24T07:17:08;3.60;;;2.58;;
15356;SDS011;7778;48.792;9.260;2023-06-24T07:19:53;3.50;;;2.88;;
15356;SDS011;7778;48.792;9.260;2023-06-24T07:22:40;5.07;;;3.28;;
15356;SDS011;7778;48.792;9.260;2023-06-24T07:25:26;7.32;;;3.35;;
15356;SDS011;7778;48.792;9.260;2023-06-24T07:28:12;3.85;;;2.80;;
15356;SDS011;7778;48.792;9.260;2023-06-24T07:30:57;5.13;;;2.92;;
15356;SDS011;7778;48.792;9.260;2023-06-24T07:33:43;5.60;;;3.20;;
15356;SDS011;7778;48.792;9.260;2023-06-24T07:36:28;4.53;;;3.05;;
15356;SDS011;7778;48.792;9.260;2023-06-24T07:39:15;4.97;;;3.08;;
15356;SDS011;7778;48.792;9.260;2023-06-24T07:42:01;3.50;;;2.60;;
15356;SDS011;7778;48.792;9.260;2023-06-24T07:44:47;5.10;;;3.03;;
15356;SDS011;7778;48.792;9.260;2023-06-24T07:47:33;4.82;;;2.88;;
15356;SDS011;7778;48.792;9.260;2023-06-24T07:50:19;3.67;;;3.08;;
15356;SDS011;7778;48.792;9.260;2023-06-24T07:53:05;3.20;;;2.63;;
15356;SDS011;7778;48.792;9.260;2023-06-24T07:55:52;3.85;;;2.70;;
15356;SDS011;7778;48.792;9.260;2023-06-24T07:58:37;3.83;;;2.83;;
15356;SDS011;7778;48.792;9.260;2023-06-24T08:01:23;3.80;;;2.90;;
15356;SDS011;7778;48.792;9.260;2023-06-24T08:04:08;3.67;;;2.65;;
15356;SDS011;7778;48.792;9.260;2023-06-24T08:06:54;3.60;;;2.95;;
15356;SDS011;7778;48.792;9.260;2023-06-24T08:09:39;3.28;;;2.47;;
15356;SDS011;7778;48.792;9.260;2023-06-24T08:12:26;5.05;;;2.60;;
15356;SDS011;7778;48.792;9.260;2023-06-24T08:15:11;2.97;;;2.53;;
15356;SDS011;7778;48.792;9.260;2023-06-24T08:17:58;3.10;;;2.60;;
15356;SDS011;7778;48.792;9.260;2023-06-24T08:20:43;3.10;;;2.60;;
15356;SDS011;7778;48.792;9.260;2023-06-24T08:23:29;5.75;;;3.30;;
15356;SDS011;7778;48.792;9.260;2023-06-24T08:26:14;6.40;;;3.30;;
15356;SDS011;7778;48.792;9.260;2023-06-24T08:29:01;4.05;;;2.85;;
15356;SDS011;7778;48.792;9.260;2023-06-24T08:31:48;3.35;;;2.78;;
15356;SDS011;7778;48.792;9.260;2023-06-24T08:34:33;4.50;;;3.00;;
15356;SDS011;7778;48.792;9.260;2023-06-24T08:37:19;6.15;;;2.90;;
15356;SDS011;7778;48.792;9.260;2023-06-24T08:40:05;3.28;;;2.40;;
15356;SDS011;7778;48.792;9.260;2023-06-24T08:42:52;5.75;;;2.83;;
15356;SDS011;7778;48.792;9.260;2023-06-24T08:45:40;3.80;;;2.55;;
15356;SDS011;7778;48.792;9.260;2023-06-24T08:48:25;3.13;;;2.50;;
15356;SDS011;7778;48.792;9.260;2023-06-24T08:51:14;3.28;;;2.25;;
15356;SDS011;7778;48.792;9.260;2023-06-24T08:54:06;3.45;;;2.33;;
15356;SDS011;7778;48.792;9.260;2023-06-24T08:56:54;3.97;;;2.65;;
15356;SDS011;7778;48.792;9.260;2023-06-24T08:59:40;2.60;;;2.40;;
15356;SDS011;7778;48.792;9.260;2023-06-24T09:02:29;3.28;;;2.50;;
15356;SDS011;7778;48.792;9.260;2023-06-24T09:05:19;4.70;;;3.17;;
15356;SDS011;7778;48.792;9.260;2023-06-24T09:08:04;3.30;;;2.60;;
15356;SDS011;7778;48.792;9.260;2023-06-24T09:10:52;3.15;;;2.38;;
15356;SDS011;7778;48.792;9.260;2023-06-24T09:13:39;3.42;;;2.40;;
15356;SDS011;7778;48.792;9.260;2023-06-24T09:16:24;3.58;;;2.70;;
15356;SDS011;7778;48.792;9.260;2023-06-24T09:19:12;3.95;;;2.53;;
15356;SDS011;7778;48.792;9.260;2023-06-24T09:22:06;3.58;;;2.78;;
15356;SDS011;7778;48.792;9.260;2023-06-24T09:25:00;4.03;;;2.60;;
15356;SDS011;7778;48.792;9.260;2023-06-24T09:27:47;3.50;;;2.38;;
15356;SDS011;7778;48.792;9.260;2023-06-24T09:30:36;4.70;;;2.53;;
15356;SDS011;7778;48.792;9.260;2023-06-24T09:33:21;3.10;;;2.28;;
15356;SDS011;7778;48.792;9.260;2023-06-24T09:36:12;4.32;;;2.80;;
15356;SDS011;7778;48.792;9.260;2023-06-24T09:39:02;3.13;;;2.35;;
15356;SDS011;7778;48.792;9.260;2023-06-24T09:41:51;4.43;;;2.50;;
15356;SDS011;7778;48.792;9.260;2023-06-24T09:44:36;4.32;;;2.47;;
15356;SDS011;7778;48.792;9.260;2023-06-24T09:47:22;2.97;;;2.28;;
15356;SDS011;7778;48.792;9.260;2023-06-24T09:50:08;3.97;;;2.47;;
15356;SDS011;7778;48.792;9.260;2023-06-24T09:52:55;2.20;;;2.00;;
15356;SDS011;7778;48.792;9.260;2023-06-24T09:55:42;2.15;;;1.88;;
15356;SDS011;7778;48.792;9.260;2023-06-24T09:58:31;3.50;;;1.73;;
15356;SDS011;7778;48.792;9.260;2023-06-24T10:01:17;2.92;;;2.05;;
15356;SDS011;7778;48.792;9.260;2023-06-24T10:04:03;1.67;;;1.58;;
15356;SDS011;7778;48.792;9.260;2023-06-24T10:06:50;2.00;;;1.80;;
15356;SDS011;7778;48.792;9.260;2023-06-24T10:09:37;3.15;;;2.03;;
15356;SDS011;7778;48.792;9.260;2023-06-24T10:12:23;2.97;;;1.88;;
15356;SDS011;7778;48.792;9.260;2023-06-24T10:15:10;3.33;;;2.25;;
15356;SDS011;7778;48.792;9.260;2023-06-24T10:18:00;2.15;;;1.83;;
15356;SDS011;7778;48.792;9.260;2023-06-24T10:20:47;4.32;;;2.00;;
15356;SDS011;7778;48.792;9.260;2023-06-24T10:23:35;3.30;;;2.30;;
15356;SDS011;7778;48.792;9.260;2023-06-24T10:26:32;2.47;;;2.03;;
15356;SDS011;7778;48.792;9.260;2023-06-24T10:29:30;2.90;;;2.30;;
15356;SDS011;7778;48.792;9.260;2023-06-24T10:32:17;3.22;;;2.65;;
15356;SDS011;7778;48.792;9.260;2023-06-24T10:35:04;2.97;;;2.15;;
15356;SDS011;7778;48.792;9.260;2023-06-24T10:37:54;2.92;;;2.28;;
15356;SDS011;7778;48.792;9.260;2023-06-24T10:40:42;2.90;;;2.30;;
15356;SDS011;7778;48.792;9.260;2023-06-24T10:43:29;5.13;;;2.50;;
15356;SDS011;7778;48.792;9.260;2023-06-24T10:46:15;2.42;;;2.15;;
15356;SDS011;7778;48.792;9.260;2023-06-24T10:49:03;3.28;;;2.40;;
15356;SDS011;7778;48.792;9.260;2023-06-24T10:51:49;3.05;;;2.30;;
15356;SDS011;7778;48.792;9.260;2023-06-24T10:54:36;3.88;;;2.63;;
15356;SDS011;7778;48.792;9.260;2023-06-24T10:57:23;3.97;;;2.67;;
15356;SDS011;7778;48.792;9.260;2023-06-24T11:00:12;4.18;;;2.60;;
15356;SDS011;7778;48.792;9.260;2023-06-24T11:03:07;3.45;;;2.33;;
15356;SDS011;7778;48.792;9.260;2023-06-24T11:05:53;4.00;;;2.25;;
15356;SDS011;7778;48.792;9.260;2023-06-24T11:08:43;3.20;;;2.40;;
15356;SDS011;7778;48.792;9.260;2023-06-24T11:11:30;2.90;;;2.40;;
15356;SDS011;7778;48.792;9.260;2023-06-24T11:14:16;4.05;;;2.53;;
15356;SDS011;7778;48.792;9.260;2023-06-24T11:17:03;4.10;;;2.72;;
15356;SDS011;7778;48.792;9.260;2023-06-24T11:19:49;4.03;;;2.55;;
15356;SDS011;7778;48.792;9.260;2023-06-24T11:22:37;3.20;;;2.30;;
15356;SDS011;7778;48.792;9.260;2023-06-24T11:25:24;2.70;;;2.38;;
15356;SDS011;7778;48.792;9.260;2023-06-24T11:28:13;2.45;;;2.10;;
15356;SDS011;7778;48.792;9.260;2023-06-24T11:31:05;3.47;;;2.67;;
15356;SDS011;7778;48.792;9.260;2023-06-24T11:33:53;2.75;;;2.00;;
15356;SDS011;7778;48.792;9.260;2023-06-24T11:36:39;3.63;;;2.33;;
15356;SDS011;7778;48.792;9.260;2023-06-24T11:39:25;3.83;;;2.25;;
15356;SDS011;7778;48.792;9.260;2023-06-24T11:42:13;3.35;;;2.20;;
15356;SDS011;7778;48.792;9.260;2023-06-24T11:44:59;2.95;;;1.90;;
15356;SDS011;7778;48.792;9.260;2023-06-24T11:47:46;4.38;;;2.50;;
15356;SDS011;7778;48.792;9.260;2023-06-24T11:50:33;2.63;;;2.00;;
15356;SDS011;7778;48.792;9.260;2023-06-24T11:53:22;3.63;;;2.40;;
15356;SDS011;7778;48.792;9.260;2023-06-24T11:56:15;3.70;;;2.50;;
15356;SDS011;7778;48.792;9.260;2023-06-24T11:59:03;3.05;;;2.33;;
15356;SDS011;7778;48.792;9.260;2023-06-24T12:01:53;3.10;;;2.28;;
15356;SDS011;7778;48.792;9.260;2023-06-24T12:04:43;2.17;;;1.98;;
15356;SDS011;7778;48.792;9.260;2023-06-24T12:07:31;2.03;;;1.83;;
15356;SDS011;7778;48.792;9.260;2023-06-24T12:10:16;3.63;;;2.20;;
15356;SDS011;7778;48.792;9.260;2023-06-24T12:13:02;2.72;;;1.90;;
15356;SDS011;7778;48.792;9.260;2023-06-24T12:15:49;3.22;;;2.10;;
15356;SDS011;7778;48.792;9.260;2023-06-24T12:18:35;3.17;;;2.17;;
15356;SDS011;7778;48.792;9.260;2023-06-24T12:21:20;3.17;;;2.35;;
15356;SDS011;7778;48.792;9.260;2023-06-24T12:55:28;3.28;;;2.10;;
15356;SDS011;7778;48.792;9.260;2023-06-24T12:58:14;4.13;;;2.35;;
15356;SDS011;7778;48.792;9.260;2023-06-24T13:01:03;3.17;;;2.20;;
15356;SDS011;7778;48.792;9.260;2023-06-24T13:03:49;3.50;;;2.40;;
15356;SDS011;7778;48.792;9.260;2023-06-24T13:06:34;3.78;;;2.50;;
15356;SDS011;7778;48.792;9.260;2023-06-24T13:09:20;3.83;;;2.05;;
15356;SDS011;7778;48.792;9.260;2023-06-24T13:12:07;2.60;;;2.13;;
15356;SDS011;7778;48.792;9.260;2023-06-24T13:14:53;3.63;;;2.33;;
15356;SDS011;7778;48.792;9.260;2023-06-24T13:17:39;3.65;;;2.40;;
15356;SDS011;7778;48.792;9.260;2023-06-24T13:20:25;3.63;;;2.67;;
15356;SDS011;7778;48.792;9.260;2023-06-24T13:23:11;4.18;;;2.05;;
15356;SDS011;7778;48.792;9.260;2023-06-24T13:25:56;3.72;;;2.35;;
15356;SDS011;7778;48.792;9.260;2023-06-24T13:28:43;3.03;;;2.30;;
15356;SDS011;7778;48.792;9.260;2023-06-24T13:31:29;2.60;;;2.33;;
15356;SDS011;7778;48.792;9.260;2023-06-24T13:34:14;2.75;;;2.05;;
15356;SDS011;7778;48.792;9.260;2023-06-24T13:37:00;3.67;;;2.30;;
15356;SDS011;7778;48.792;9.260;2023-06-24T13:39:46;4.20;;;2.63;;
15356;SDS011;7778;48.792;9.260;2023-06-24T13:42:32;3.45;;;2.45;;
15356;SDS011;7778;48.792;9.260;2023-06-24T13:45:18;4.07;;;2.90;;
15356;SDS011;7778;48.792;9.260;2023-06-24T13:48:04;3.28;;;2.05;;
15356;SDS011;7778;48.792;9.260;2023-06-24T13:50:50;4.03;;;2.50;;
15356;SDS011;7778;48.792;9.260;2023-06-24T13:53:35;3.38;;;2.60;;
15356;SDS011;7778;48.792;9.260;2023-06-24T13:56:21;3.53;;;2.22;;
15356;SDS011;7778;48.792;9.260;2023-06-24T13:59:08;5.45;;;2.80;;
15356;SDS011;7778;48.792;9.260;2023-06-24T14:01:55;4.90;;;2.50;;
15356;SDS011;7778;48.792;9.260;2023-06-24T14:04:41;3.03;;;2.60;;
15356;SDS011;7778;48.792;9.260;2023-06-24T14:07:26;4.03;;;2.33;;
15356;SDS011;7778;48.792;9.260;2023-06-24T14:10:13;4.05;;;2.63;;
15356;SDS011;7778;48.792;9.260;2023-06-24T14:12:59;3.75;;;2.50;;
15356;SDS011;7778;48.792;9.260;2023-06-24T14:15:45;3.15;;;2.50;;
15356;SDS011;7778;48.792;9.260;2023-06-24T14:18:32;7.43;;;3.00;;
15356;SDS011;7778;48.792;9.260;2023-06-24T14:21:18;3.50;;;2.45;;
15356;SDS011;7778;48.792;9.260;2023-06-24T14:24:04;4.10;;;2.70;;
15356;SDS011;7778;48.792;9.260;2023-06-24T14:26:50;4.15;;;2.40;;
15356;SDS011;7778;48.792;9.260;2023-06-24T14:29:36;4.45;;;2.80;;
15356;SDS011;7778;48.792;9.260;2023-06-24T14:32:21;3.67;;;2.42;;
15356;SDS011;7778;48.792;9.260;2023-06-24T14:35:09;4.22;;;2.55;;
15356;SDS011;7778;48.792;9.260;2023-06-24T14:37:55;3.75;;;2.65;;
15356;SDS011;7778;48.792;9.260;2023-06-24T14:40:41;3.15;;;2.60;;
15356;SDS011;7778;48.792;9.260;2023-06-24T14:43:27;4.00;;;2.10;;
15356;SDS011;7778;48.792;9.260;2023-06-24T14:46:19;4.63;;;2.30;;
15356;SDS011;7778;48.792;9.260;2023-06-24T14:49:04;3.47;;;2.70;;
15356;SDS011;7778;48.792;9.260;2023-06-24T14:51:52;4.38;;;2.67;;
15356;SDS011;7778;48.792;9.260;2023-06-24T14:54:38;5.60;;;3.17;;
15356;SDS011;7778;48.792;9.260;2023-06-24T14:57:24;3.78;;;2.60;;
15356;SDS011;7778;48.792;9.260;2023-06-24T15:00:10;2.97;;;2.10;;
15356;SDS011;7778;48.792;9.260;2023-06-24T15:02:57;3.55;;;2.47;;
15356;SDS011;7778;48.792;9.260;2023-06-24T15:05:43;3.05;;;2.35;;
15356;SDS011;7778;48.792;9.260;2023-06-24T15:08:30;3.47;;;2.33;;
15356;SDS011;7778;48.792;9.260;2023-06-24T15:11:16;2.13;;;1.92;;
15356;SDS011;7778;48.792;9.260;2023-06-24T15:14:07;3.65;;;2.40;;
15356;SDS011;7778;48.792;9.260;2023-06-24T15:16:53;2.85;;;2.13;;
15356;SDS011;7778;48.792;9.260;2023-06-24T15:19:41;3.88;;;2.30;;
15356;SDS011;7778;48.792;9.260;2023-06-24T15:22:27;2.92;;;2.20;;
15356;SDS011;7778;48.792;9.260;2023-06-24T15:25:14;5.00;;;2.40;;
15356;SDS011;7778;48.792;9.260;2023-06-24T15:27:59;3.15;;;2.22;;
15356;SDS011;7778;48.792;9.260;2023-06-24T15:30:45;3.80;;;2.65;;
15356;SDS011;7778;48.792;9.260;2023-06-24T15:33:31;3.80;;;2.20;;
15356;SDS011;7778;48.792;9.260;2023-06-24T15:36:17;4.05;;;2.40;;
15356;SDS011;7778;48.792;9.260;2023-06-24T15:39:04;3.05;;;2.30;;
15356;SDS011;7778;48.792;9.260;2023-06-24T15:41:51;2.88;;;2.20;;
15356;SDS011;7778;48.792;9.260;2023-06-24T15:44:37;4.50;;;2.28;;
15356;SDS011;7778;48.792;9.260;2023-06-24T15:47:23;3.67;;;2.53;;
15356;SDS011;7778;48.792;9.260;2023-06-24T15:50:08;4.88;;;2.67;;
15356;SDS011;7778;48.792;9.260;2023-06-24T15:52:55;3.78;;;2.83;;
15356;SDS011;7778;48.792;9.260;2023-06-24T15:55:40;3.70;;;2.58;;
15356;SDS011;7778;48.792;9.260;2023-06-24T15:58:27;3.17;;;1.98;;
15356;SDS011;7778;48.792;9.260;2023-06-24T16:01:12;4.20;;;2.30;;
15356;SDS011;7778;48.792;9.260;2023-06-24T16:03:58;2.95;;;2.38;;
15356;SDS011;7778;48.792;9.260;2023-06-24T16:06:44;2.70;;;2.28;;
15356;SDS011;7778;48.792;9.260;2023-06-24T16:09:29;3.33;;;2.40;;
15356;SDS011;7778;48.792;9.260;2023-06-24T16:12:15;5.18;;;2.38;;
15356;SDS011;7778;48.792;9.260;2023-06-24T16:15:02;2.67;;;2.03;;
15356;SDS011;7778;48.792;9.260;2023-06-24T16:17:48;4.03;;;2.50;;
15356;SDS011;7778;48.792;9.260;2023-06-24T16:20:35;4.05;;;2.60;;
15356;SDS011;7778;48.792;9.260;2023-06-24T16:23:21;4.00;;;2.40;;
15356;SDS011;7778;48.792;9.260;2023-06-24T16:26:06;2.65;;;2.00;;
15356;SDS011;7778;48.792;9.260;2023-06-24T16:28:52;3.92;;;2.28;;
15356;SDS011;7778;48.792;9.260;2023-06-24T16:31:39;4.45;;;2.78;;
15356;SDS011;7778;48.792;9.260;2023-06-24T16:34:25;3.83;;;2.70;;
15356;SDS011;7778;48.792;9.260;2023-06-24T16:37:10;2.65;;;2.00;;
15356;SDS011;7778;48.792;9.260;2023-06-24T16:39:56;5.22;;;2.30;;
15356;SDS011;7778;48.792;9.260;2023-06-24T16:42:41;3.33;;;2.33;;
15356;SDS011;7778;48.792;9.260;2023-06-24T16:45:27;3.10;;;2.40;;
15356;SDS011;7778;48.792;9.260;2023-06-24T16:48:14;2.70;;;2.08;;
15356;SDS011;7778;48.792;9.260;2023-06-24T16:50:59;3.80;;;2.30;;
15356;SDS011;7778;48.792;9.260;2023-06-24T16:53:45;6.35;;;4.57;;
15356;SDS011;7778;48.792;9.260;2023-06-24T16:56:31;2.92;;;2.22;;
15356;SDS011;7778;48.792;9.260;2023-06-24T16:59:17;2.78;;;1.70;;
15356;SDS011;7778;48.792;9.260;2023-06-24T17:02:03;4.60;;;2.58;;
15356;SDS011;7778;48.792;9.260;2023-06-24T17:04:50;3.30;;;2.13;;
15356;SDS011;7778;48.792;9.260;2023-06-24T17:07:36;3.63;;;2.33;;
15356;SDS011;7778;48.792;9.260;2023-06-24T17:10:21;3.60;;;2.50;;
15356;SDS011;7778;48.792;9.260;2023-06-24T17:13:07;7.15;;;2.53;;
15356;SDS011;7778;48.792;9.260;2023-06-24T17:15:52;2.85;;;2.30;;
15356;SDS011;7778;48.792;9.260;2023-06-24T17:18:38;2.90;;;2.35;;
15356;SDS011;7778;48.792;9.260;2023-06-24T17:21:25;2.92;;;2.22;;
15356;SDS011;7778;48.792;9.260;2023-06-24T17:24:10;3.50;;;2.17;;
15356;SDS011;7778;48.792;9.260;2023-06-24T17:26:56;3.85;;;1.95;;
15356;SDS011;7778;48.792;9.260;2023-06-24T17:29:41;5.25;;;2.60;;
15356;SDS011;7778;48.792;9.260;2023-06-24T17:32:27;3.28;;;2.47;;
15356;SDS011;7778;48.792;9.260;2023-06-24T17:35:12;3.60;;;2.63;;